Time;durP1;ratioP1;P1;durP2;ratioP2;P2;SDS_P1;SDS_P2;PMS_P1;PMS_P2;Temp;Humidity;BMP_temperature;BMP_pressure;BME280_temperature;BME280_humidity;BME280_pressure;Samples;Min_cycle;Max_cycle;Signal;HPM_P1;HPM_P2
2022/12/14 07:46:57;;;;;;;23.30;10.93;;;;;;;-3.04;100.00;97370.97;5136380;27;20358;-76
2022/12/14 07:49:23;;;;;;;23.53;12.43;;;;;;;-3.05;100.00;97352.50;5128284;28;20053;-76
2022/12/14 07:51:51;;;;;;;21.17;11.03;;;;;;;-3.08;100.00;97336.84;5130991;28;20096;-76
2022/12/14 07:54:18;;;;;;;24.63;11.60;;;;;;;-2.78;100.00;97367.66;5129461;27;20086;-76
2022/12/14 07:56:45;;;;;;;18.20;10.13;;;;;;;-2.73;100.00;97369.88;5122408;27;20077;-75
2022/12/14 07:59:14;;;;;;;20.65;11.57;;;;;;;-2.63;100.00;97357.41;5119448;27;20050;-76
2022/12/14 08:01:42;;;;;;;;;;;;;;;-2.48;100.00;97363.09;5125621;27;20070;-76
2022/12/14 08:04:11;;;;;;;22.27;11.83;;;;;;;-2.58;100.00;97336.50;5130270;27;20002;-76
2022/12/14 08:06:38;;;;;;;23.17;12.07;;;;;;;-2.54;100.00;97323.75;5130874;27;20043;-76
2022/12/14 08:09:06;;;;;;;23.80;10.48;;;;;;;-2.43;100.00;97338.69;5110223;28;20126;-76
2022/12/14 08:11:33;;;;;;;24.65;10.77;;;;;;;-2.36;100.00;97351.25;5110470;28;20048;-77
2022/12/14 08:14:01;;;;;;;27.10;12.20;;;;;;;-2.41;100.00;97355.34;5109809;28;20052;-76
2022/12/14 08:16:28;;;;;;;21.23;10.88;;;;;;;-2.44;100.00;97359.13;5109916;28;20048;-76
2022/12/14 08:18:57;;;;;;;25.92;11.45;;;;;;;-2.37;100.00;97370.84;5120460;28;20051;-77
2022/12/14 08:21:26;;;;;;;24.17;11.43;;;;;;;-2.37;100.00;97367.38;5130769;27;20134;-76
2022/12/14 08:23:54;;;;;;;24.38;11.88;;;;;;;-2.24;100.00;97370.53;5129485;27;20479;-76
2022/12/14 08:26:21;;;;;;;20.58;9.73;;;;;;;-2.38;100.00;97339.06;5130489;27;20047;-76
2022/12/14 08:28:48;;;;;;;23.17;11.23;;;;;;;-2.08;99.77;97361.03;5121987;27;20542;-76
2022/12/14 08:31:16;;;;;;;27.88;12.63;;;;;;;-2.11;100.00;97358.69;5130739;27;20524;-77
2022/12/14 08:33:44;;;;;;;23.35;11.27;;;;;;;-2.11;100.00;97356.03;5127900;27;20051;-77
2022/12/14 08:36:12;;;;;;;25.48;12.13;;;;;;;-2.13;100.00;97335.69;5129940;27;20137;-77
2022/12/14 08:38:41;;;;;;;21.77;10.88;;;;;;;-2.03;99.88;97364.94;5113487;27;20069;-77
2022/12/14 08:41:10;;;;;;;26.58;12.48;;;;;;;-2.24;100.00;97343.91;5109854;28;20051;-77
2022/12/14 08:43:37;;;;;;;25.83;12.10;;;;;;;-2.17;100.00;97347.66;5109247;28;20479;-77
2022/12/14 08:46:04;;;;;;;26.65;12.50;;;;;;;-2.28;100.00;97341.69;5109544;28;20050;-77
2022/12/14 08:48:31;;;;;;;22.52;11.35;;;;;;;-2.14;100.00;97373.97;5109321;28;20062;-77
2022/12/14 08:51:02;;;;;;;19.67;10.65;;;;;;;-2.10;100.00;97357.72;5111258;28;20063;-77
2022/12/14 08:53:28;;;;;;;26.85;11.93;;;;;;;-2.15;100.00;97348.34;5129442;27;20466;-76
2022/12/14 08:55:57;;;;;;;25.67;11.52;;;;;;;-1.92;100.00;97345.25;5129873;27;20133;-76
2022/12/14 08:58:25;;;;;;;22.13;12.23;;;;;;;-1.89;100.00;97336.13;5101801;28;20514;-76
2022/12/14 09:01:00;;;;;;;25.88;11.82;;;;;;;-2.11;100.00;97330.22;5095330;28;20059;-77
2022/12/14 09:03:26;;;;;;;28.90;12.55;;;;;;;-1.95;100.00;97332.22;5094662;28;20524;-76
2022/12/14 09:05:54;;;;;;;20.98;11.35;;;;;;;-1.89;100.00;97344.13;5114260;27;20053;-77
2022/12/14 09:08:21;;;;;;;20.95;12.63;;;;;;;-1.96;100.00;97349.19;5109042;28;20122;-77
2022/12/14 09:10:49;;;;;;;27.83;12.55;;;;;;;-1.98;100.00;97356.50;5115868;28;20058;-77
2022/12/14 09:13:17;;;;;;;21.98;12.32;;;;;;;-2.09;100.00;97335.41;5114938;28;20565;-77
2022/12/14 09:15:43;;;;;;;24.33;11.77;;;;;;;-2.13;100.00;97327.72;5108210;28;20048;-77
2022/12/14 09:18:10;;;;;;;27.05;12.48;;;;;;;-2.04;100.00;97299.34;5095317;28;20044;-77
2022/12/14 09:20:37;;;;;;;23.65;11.52;;;;;;;-2.14;100.00;97319.88;5094975;28;20052;-77
2022/12/14 09:23:03;;;;;;;26.77;12.15;;;;;;;-2.10;100.00;97315.09;5114047;28;20083;-77
2022/12/14 09:25:30;;;;;;;28.42;12.77;;;;;;;-2.00;100.00;97310.56;5110014;28;20131;-77
2022/12/14 09:27:57;;;;;;;27.35;13.07;;;;;;;-1.97;100.00;97313.75;5095053;28;20052;-77
2022/12/14 09:30:25;;;;;;;27.13;12.45;;;;;;;-1.96;100.00;97304.78;5094838;28;20487;-77
2022/12/14 09:32:51;;;;;;;32.03;15.50;;;;;;;-1.83;100.00;97323.03;5094184;28;20052;-77
2022/12/14 09:35:18;;;;;;;25.65;13.10;;;;;;;-2.01;100.00;97303.53;5095067;28;20126;-77
2022/12/14 09:37:45;;;;;;;23.58;12.60;;;;;;;-1.72;100.00;97321.13;5107786;27;20405;-77
2022/12/14 09:40:13;;;;;;;21.70;11.93;;;;;;;-1.71;100.00;97331.63;5115034;28;20056;-77
2022/12/14 09:42:53;;;;;;;28.08;13.93;;;;;;;-1.82;100.00;97316.72;5114343;28;20053;-77
2022/12/14 09:45:21;;;;;;;;;;;;;;;-1.73;100.00;97328.28;5113750;28;20048;-77
2022/12/14 09:47:56;;;;;;;27.27;12.45;;;;;;;-1.81;100.00;97328.19;5111587;28;19919;-77
2022/12/14 09:50:23;;;;;;;28.40;14.60;;;;;;;-2.03;100.00;97310.81;5113093;28;20134;-77
2022/12/14 09:52:53;;;;;;;27.48;13.18;;;;;;;-1.93;100.00;97322.25;5111129;27;20062;-77
2022/12/14 09:55:25;;;;;;;29.63;14.60;;;;;;;-1.93;100.00;97318.75;5113132;27;20043;-77
2022/12/14 09:57:56;;;;;;;29.52;13.75;;;;;;;-2.02;100.00;97313.38;5106279;28;20095;-77
2022/12/14 10:00:22;;;;;;;29.58;12.27;;;;;;;-1.85;100.00;97322.34;5093499;28;20039;-77
2022/12/14 10:03:05;;;;;;;27.65;14.48;;;;;;;-1.75;100.00;97334.75;5093110;28;20059;-77
2022/12/14 10:05:52;;;;;;;27.13;14.23;;;;;;;-1.96;100.00;97330.53;5093695;28;20047;-77
2022/12/14 10:08:25;;;;;;;29.42;13.80;;;;;;;-1.93;100.00;97319.59;5107253;28;20047;-77
2022/12/14 10:11:00;;;;;;;31.13;14.55;;;;;;;-1.84;100.00;97309.84;5112382;28;20055;-77
2022/12/14 10:13:39;;;;;;;34.58;15.00;;;;;;;-1.88;100.00;97311.16;5113671;28;20044;-77
2022/12/14 10:16:16;;;;;;;34.22;15.45;;;;;;;-1.86;100.00;97325.16;5114415;28;20135;-77
2022/12/14 10:19:02;;;;;;;36.85;16.83;;;;;;;-2.06;100.00;97288.03;5095889;28;20055;-77
2022/12/14 10:21:42;;;;;;;29.90;15.43;;;;;;;-2.05;100.00;97297.66;5093818;28;20892;-77
2022/12/14 10:24:15;;;;;;;31.20;15.32;;;;;;;-1.81;100.00;97323.72;5103875;28;20487;-77
2022/12/14 10:26:46;;;;;;;29.80;13.90;;;;;;;-1.83;100.00;97288.41;5113802;28;20043;-77
2022/12/14 10:29:18;;;;;;;27.25;14.48;;;;;;;-1.81;100.00;97275.78;5114078;28;20482;-77
2022/12/14 10:31:55;;;;;;;29.55;14.18;;;;;;;-1.66;100.00;97278.69;5114014;28;20052;-77
2022/12/14 10:34:28;;;;;;;27.77;13.77;;;;;;;-1.56;100.00;97291.97;5104342;28;20043;-77
2022/12/14 10:37:04;;;;;;;31.80;16.00;;;;;;;-1.73;100.00;97267.00;5095141;28;20043;-77
2022/12/14 10:39:47;;;;;;;38.13;17.80;;;;;;;-1.50;100.00;97282.50;5107818;28;20113;-77
2022/12/14 10:42:23;;;;;;;34.97;16.15;;;;;;;-1.47;100.00;97266.22;5113012;28;20043;-77
2022/12/14 10:45:00;;;;;;;32.78;15.65;;;;;;;-1.27;100.00;97291.66;5097914;27;20062;-77
2022/12/14 10:47:34;;;;;;;35.85;16.02;;;;;;;-1.26;100.00;97273.84;5108023;28;20044;-77
2022/12/14 10:50:13;;;;;;;30.38;14.80;;;;;;;-1.05;100.00;97281.47;5113791;28;20043;-77
2022/12/14 10:52:43;;;;;;;32.72;14.68;;;;;;;-1.17;100.00;97272.91;5113141;28;20055;-77
2022/12/14 10:55:13;;;;;;;;;;;;;;;-1.14;100.00;97287.75;5111104;28;20134;-77
2022/12/14 10:57:40;;;;;;;27.38;14.65;;;;;;;-1.07;100.00;97278.97;5093118;28;20302;-77
2022/12/14 11:00:13;;;;;;;29.42;15.10;;;;;;;-1.16;100.00;97261.25;5100595;27;20047;-77
2022/12/14 11:02:42;;;;;;;31.75;15.02;;;;;;;-1.14;100.00;97266.44;5112125;27;20096;-77
2022/12/14 11:05:34;;;;;;;28.17;14.48;;;;;;;-0.75;100.00;97300.66;5093183;28;20491;-77
2022/12/14 11:08:01;;;;;;;28.77;13.73;;;;;;;-0.82;100.00;97280.94;5093374;28;20055;-77
2022/12/14 11:10:30;;;;;;;35.53;15.70;;;;;;;-0.79;100.00;97304.63;5093085;28;20075;-77
2022/12/14 11:13:03;;;;;;;34.83;16.80;;;;;;;-0.81;100.00;97290.59;5112507;28;20398;-78
2022/12/14 11:15:34;;;;;;;37.20;15.50;;;;;;;-0.90;100.00;97271.06;5113315;28;20055;-77
2022/12/14 11:18:23;;;;;;;25.67;13.23;;;;;;;-1.05;100.00;97280.63;5113242;28;20130;-77
2022/12/14 11:20:53;;;;;;;30.27;15.70;;;;;;;-1.04;100.00;97263.63;5111134;28;20133;-77
2022/12/14 11:23:21;;;;;;;37.92;16.45;;;;;;;-0.98;100.00;97279.88;5112468;28;20130;-77
2022/12/14 11:25:50;;;;;;;27.60;14.73;;;;;;;-1.00;100.00;97251.66;5113134;28;20057;-77
2022/12/14 11:28:27;;;;;;;36.70;16.00;;;;;;;-1.11;100.00;97279.44;5113219;28;20170;-77
2022/12/14 11:30:57;;;;;;;28.30;14.80;;;;;;;-1.05;100.00;97281.47;5111116;28;20036;-77
2022/12/14 11:33:25;;;;;;;;;;;;;;;-0.75;100.00;97290.81;5113260;28;20058;-77
2022/12/14 11:35:54;;;;;;;30.00;14.18;;;;;;;-0.79;100.00;97285.94;5107433;28;19927;-77
2022/12/14 11:38:23;;;;;;;33.92;14.73;;;;;;;-1.06;100.00;97258.47;5112858;28;20039;-77
2022/12/14 11:40:49;;;;;;;30.97;16.20;;;;;;;-0.99;100.00;97286.19;5110560;28;20051;-77
2022/12/14 11:43:25;;;;;;;36.08;16.05;;;;;;;-1.00;100.00;97281.84;5111227;28;20423;-77
2022/12/14 11:45:51;;;;;;;39.70;18.27;;;;;;;-1.06;100.00;97245.13;5112634;28;20051;-77
2022/12/14 11:48:23;;;;;;;33.75;16.25;;;;;;;-0.83;100.00;97244.56;5113052;28;20054;-77
2022/12/14 11:50:51;;;;;;;35.40;16.13;;;;;;;-0.75;100.00;97260.63;5110604;28;20047;-77
2022/12/14 11:53:22;;;;;;;36.05;16.98;;;;;;;-0.78;100.00;97275.13;5112201;28;20055;-77
2022/12/14 11:55:54;;;;;;;34.08;15.15;;;;;;;-0.92;100.00;97265.03;5109957;28;20183;-77
2022/12/14 11:58:24;;;;;;;39.08;15.77;;;;;;;-0.98;100.00;97250.53;5106290;28;20044;-77
2022/12/14 12:00:57;;;;;;;31.58;16.05;;;;;;;-0.93;100.00;97252.72;5112725;28;20058;-77
2022/12/14 12:03:27;;;;;;;32.42;16.33;;;;;;;-1.10;100.00;97257.09;5112063;28;20130;-77
2022/12/14 12:05:59;;;;;;;37.88;17.15;;;;;;;-1.09;100.00;97261.44;5111695;28;20050;-77
2022/12/14 12:08:30;;;;;;;42.28;18.20;;;;;;;-1.07;100.00;97246.13;5112707;28;20054;-77
2022/12/14 12:10:59;;;;;;;33.88;17.08;;;;;;;-1.05;100.00;97253.94;5112851;28;20495;-78
2022/12/14 12:13:30;;;;;;;33.50;17.90;;;;;;;-0.81;100.00;97264.75;5113355;28;20092;-78
2022/12/14 12:16:00;;;;;;;36.83;15.95;;;;;;;-0.99;100.00;97248.84;5106825;28;20043;-78
2022/12/14 12:18:29;;;;;;;;;;;;;;;-0.74;100.00;97279.16;5112829;28;20055;-77
2022/12/14 12:21:02;;;;;;;36.20;18.23;;;;;;;-0.68;100.00;97277.66;5112930;28;19924;-77
2022/12/14 12:23:35;;;;;;;33.45;15.85;;;;;;;-0.88;100.00;97250.38;5100499;28;20044;-77
2022/12/14 12:26:10;;;;;;;30.13;15.15;;;;;;;-0.95;100.00;97276.88;5092261;28;20048;-77
2022/12/14 12:28:42;;;;;;;33.05;16.85;;;;;;;-1.10;100.00;97254.44;5099587;28;20050;-77
2022/12/14 12:31:18;;;;;;;35.25;16.35;;;;;;;-1.05;100.00;97268.16;5104490;28;20483;-77
2022/12/14 12:33:48;;;;;;;30.48;14.50;;;;;;;-1.03;100.00;97273.31;5115116;27;20043;-77
2022/12/14 12:36:16;;;;;;;;;;;;;;;-0.98;100.00;97269.19;5116586;28;20051;-77
2022/12/14 12:39:00;;;;;;;35.30;17.38;;;;;;;-0.97;100.00;97272.69;5110162;28;20007;-77
2022/12/14 12:41:33;;;;;;;40.78;16.88;;;;;;;-1.00;100.00;97254.34;5096957;28;20055;-77
2022/12/14 12:44:11;;;;;;;36.08;17.60;;;;;;;-1.11;100.00;97258.13;5094678;28;20090;-77
2022/12/14 12:46:47;;;;;;;39.13;16.83;;;;;;;-0.88;100.00;97271.72;5112201;28;20044;-77
2022/12/14 12:49:14;;;;;;;32.97;16.55;;;;;;;-0.90;100.00;97273.72;5116088;28;20050;-77
2022/12/14 12:51:49;;;;;;;37.53;16.48;;;;;;;-0.78;100.00;97276.97;5107247;28;20055;-77
2022/12/14 12:54:21;;;;;;;33.85;17.98;;;;;;;-0.90;100.00;97292.41;5115234;28;20047;-77
2022/12/14 12:56:51;;;;;;;36.50;17.00;;;;;;;-1.11;100.00;97274.13;5116138;28;20048;-80
2022/12/14 12:59:20;;;;;;;36.97;17.58;;;;;;;-1.10;100.00;97276.63;5114972;28;20052;-77
2022/12/14 13:01:50;;;;;;;32.63;16.58;;;;;;;-1.06;100.00;97303.81;5112774;28;20059;-77
2022/12/14 13:04:26;;;;;;;36.75;17.15;;;;;;;-1.26;100.00;97300.50;5115336;27;20040;-77
2022/12/14 13:06:57;;;;;;;37.33;18.52;;;;;;;-1.25;100.00;97313.69;5115928;28;20445;-77
2022/12/14 13:09:35;;;;;;;31.83;16.27;;;;;;;-1.40;100.00;97312.59;5109638;28;20050;-77
2022/12/14 13:12:03;;;;;;;37.25;17.85;;;;;;;-1.47;100.00;97322.19;5114727;28;20049;-77
2022/12/14 13:14:35;;;;;;;36.75;17.15;;;;;;;-1.48;100.00;97324.00;5096709;28;20055;-78
2022/12/14 13:17:06;;;;;;;37.85;16.48;;;;;;;-1.46;100.00;97327.34;5112619;28;20399;-78
2022/12/14 13:19:38;;;;;;;38.38;17.67;;;;;;;-1.43;100.00;97324.38;5113949;28;20044;-77
2022/12/14 13:22:11;;;;;;;33.05;17.33;;;;;;;-1.42;100.00;97319.88;5112991;28;20052;-77
2022/12/14 13:24:38;;;;;;;36.13;18.42;;;;;;;-1.43;100.00;97295.06;5107086;28;20043;-77
2022/12/14 13:27:33;;;;;;;41.63;18.15;;;;;;;-1.38;100.00;97304.44;5105889;27;20043;-77
2022/12/14 13:30:21;;;;;;;40.72;18.15;;;;;;;-1.38;100.00;97310.59;5094349;28;20074;-77
2022/12/14 13:33:03;;;;;;;39.50;18.45;;;;;;;-1.37;100.00;97317.59;5104608;28;20054;-77
2022/12/14 13:35:44;;;;;;;39.38;17.48;;;;;;;-1.59;100.00;97289.59;5114943;28;20073;-77
2022/12/14 13:38:27;;;;;;;39.50;18.50;;;;;;;-1.31;100.00;97316.97;5103247;28;20040;-77
2022/12/14 13:41:13;;;;;;;51.00;19.48;;;;;;;-1.44;100.00;97300.56;5110702;28;20546;-77
2022/12/14 13:43:55;;;;;;;44.55;18.85;;;;;;;-1.60;100.00;97293.25;5113164;28;20059;-77
2022/12/14 13:46:24;;;;;;;37.28;18.95;;;;;;;-1.53;100.00;97325.47;5114135;28;20055;-77
2022/12/14 13:48:54;;;;;;;44.90;21.80;;;;;;;-1.51;100.00;97336.81;5114401;28;20074;-77
2022/12/14 13:51:28;;;;;;;40.85;19.10;;;;;;;-1.62;100.00;97328.03;5110104;28;20076;-77
2022/12/14 13:53:58;;;;;;;44.17;19.17;;;;;;;-1.67;100.00;97333.00;5113681;28;20101;-77
2022/12/14 13:56:29;;;;;;;37.17;18.95;;;;;;;-1.76;100.00;97301.09;5113867;28;20055;-77
2022/12/14 13:58:58;;;;;;;38.97;19.02;;;;;;;-1.79;100.00;97343.06;5102668;28;20052;-77
2022/12/14 14:01:56;;;;;;;37.50;17.88;;;;;;;-1.73;100.00;97346.94;5113578;28;20043;-77
2022/12/14 14:04:25;;;;;;;37.53;19.02;;;;;;;-1.73;100.00;97354.94;5112341;28;20040;-77
2022/12/14 14:06:53;;;;;;;38.08;17.95;;;;;;;-1.72;100.00;97345.09;5103902;28;20127;-77
2022/12/14 14:09:49;;;;;;;41.15;20.77;;;;;;;-1.75;100.00;97356.06;5105575;28;20611;-77
2022/12/14 14:12:39;;;;;;;41.17;17.15;;;;;;;-2.02;100.00;97347.13;5093247;28;20052;-77
2022/12/14 14:15:22;;;;;;;45.08;16.45;;;;;;;-2.07;100.00;97338.75;5093458;28;20475;-77
2022/12/14 14:17:52;;;;;;;46.38;19.45;;;;;;;-2.16;100.00;97338.66;5105802;28;20119;-76
2022/12/14 14:20:37;;;;;;;45.47;20.52;;;;;;;-2.06;100.00;97351.06;5102206;28;20039;-78
2022/12/14 14:23:30;;;;;;;40.88;18.50;;;;;;;-2.00;100.00;97363.81;5108991;28;20054;-78
2022/12/14 14:26:21;;;;;;;37.72;18.92;;;;;;;-2.23;100.00;97340.28;5096777;28;20102;-78
2022/12/14 14:29:00;;;;;;;41.40;18.35;;;;;;;-2.23;100.00;97337.59;5110958;28;20051;-78
2022/12/14 14:31:44;;;;;;;36.00;17.63;;;;;;;-2.11;100.00;97362.19;5113704;28;20051;-78
2022/12/14 14:34:18;;;;;;;39.67;19.15;;;;;;;-2.06;100.00;97365.25;5113240;28;20055;-78
2022/12/14 14:36:45;;;;;;;51.42;22.15;;;;;;;-2.13;100.00;97356.16;5112972;28;20747;-78
2022/12/14 14:39:30;;;;;;;46.45;20.00;;;;;;;-2.03;100.00;97366.75;5111724;28;20079;-78
2022/12/14 14:41:58;;;;;;;41.97;19.95;;;;;;;-2.19;100.00;97365.59;5113178;28;20063;-78
2022/12/14 14:44:35;;;;;;;41.15;18.92;;;;;;;-2.09;100.00;97393.97;5112766;28;20130;-77
2022/12/14 14:47:03;;;;;;;44.20;20.98;;;;;;;-2.12;100.00;97381.81;5106883;28;20045;-78
2022/12/14 14:49:33;;;;;;;43.80;19.75;;;;;;;-2.02;100.00;97405.72;5108681;28;20066;-78
2022/12/14 14:52:34;;;;;;;40.15;20.77;;;;;;;-2.05;100.00;97412.16;5112472;28;20406;-78
2022/12/14 14:55:48;;;;;;;47.78;21.35;;;;;;;-1.97;100.00;97416.78;5095533;28;20078;-78
2022/12/14 14:58:27;;;;;;;48.28;20.45;;;;;;;-2.03;100.00;97430.66;5112715;28;20142;-77
2022/12/14 15:01:01;;;;;;;44.70;18.63;;;;;;;-2.20;100.00;97441.13;5098322;28;20376;-78
2022/12/14 15:03:38;;;;;;;49.83;21.25;;;;;;;-2.19;100.00;97434.81;5109234;28;20301;-78
2022/12/14 15:06:10;;;;;;;37.55;18.70;;;;;;;-2.23;100.00;97432.59;5113079;28;20051;-78
2022/12/14 15:08:39;;;;;;;41.85;20.58;;;;;;;-2.33;100.00;97438.78;5113052;28;20548;-77
2022/12/14 15:11:14;;;;;;;43.65;21.23;;;;;;;-2.37;100.00;97433.91;5112728;28;20047;-77
2022/12/14 15:13:46;;;;;;;46.13;19.05;;;;;;;-2.41;100.00;97451.16;5108238;28;20055;-77
2022/12/14 15:16:29;;;;;;;40.85;19.25;;;;;;;-2.29;100.00;97465.13;5092659;28;20052;-77
2022/12/14 15:19:12;;;;;;;41.22;18.65;;;;;;;-2.25;100.00;97470.00;5094179;28;20410;-78
2022/12/14 15:21:40;;;;;;;41.63;18.27;;;;;;;-2.38;100.00;97459.69;5112793;28;20059;-78
2022/12/14 15:24:13;;;;;;;38.72;17.20;;;;;;;-2.35;100.00;97485.16;5112000;28;20059;-78
2022/12/14 15:26:39;;;;;;;42.97;18.17;;;;;;;-2.51;100.00;97462.66;5112642;28;20052;-78
2022/12/14 15:29:15;;;;;;;37.95;18.50;;;;;;;-2.46;100.00;97483.50;5110937;28;20071;-78
2022/12/14 15:31:45;;;;;;;38.90;17.98;;;;;;;-2.44;100.00;97494.03;5112210;28;20380;-78
2022/12/14 15:34:16;;;;;;;47.08;17.80;;;;;;;-2.47;100.00;97496.97;5110649;28;20058;-77
2022/12/14 15:36:43;;;;;;;39.15;19.40;;;;;;;-2.43;100.00;97501.84;5112787;28;20051;-79
2022/12/14 15:39:38;;;;;;;38.10;17.80;;;;;;;-2.59;100.00;97470.53;5112783;28;20052;-78
2022/12/14 15:42:10;;;;;;;38.08;18.60;;;;;;;-2.56;100.00;97469.38;5111394;28;20121;-77
2022/12/14 15:44:39;;;;;;;37.25;17.90;;;;;;;-2.61;100.00;97461.00;5100053;28;20479;-78
2022/12/14 15:47:07;;;;;;;32.95;16.60;;;;;;;-2.67;100.00;97478.38;5111729;28;20106;-78
2022/12/14 15:49:33;;;;;;;41.58;16.63;;;;;;;-2.71;100.00;97490.28;5112497;28;20051;-78
2022/12/14 15:52:00;;;;;;;38.67;17.88;;;;;;;-2.77;100.00;97498.84;5106357;28;20403;-78
2022/12/14 15:54:27;;;;;;;39.17;16.48;;;;;;;-2.75;100.00;97492.41;5111745;28;20063;-78
2022/12/14 15:56:56;;;;;;;37.95;16.48;;;;;;;-2.69;100.00;97505.13;5108810;28;20048;-78
2022/12/14 15:59:25;;;;;;;38.03;18.80;;;;;;;-2.66;100.00;97525.28;5091913;28;20059;-77
2022/12/14 16:01:57;;;;;;;40.65;18.80;;;;;;;-2.59;100.00;97530.88;5090344;28;20048;-79
2022/12/14 16:04:27;;;;;;;36.83;16.33;;;;;;;-2.60;100.00;97537.19;5091791;28;20150;-78
2022/12/14 16:06:58;;;;;;;35.33;17.48;;;;;;;-2.50;100.00;97544.19;5093347;28;20134;-78
2022/12/14 16:09:38;;;;;;;36.10;17.33;;;;;;;-2.49;100.00;97547.66;5095625;28;20094;-80
2022/12/14 16:12:14;;;;;;;40.70;18.88;;;;;;;-2.51;100.00;97544.31;5115429;28;20048;-79
2022/12/14 16:14:46;;;;;;;29.65;15.27;;;;;;;-2.58;100.00;97521.91;5116979;27;20044;-78
2022/12/14 16:17:16;;;;;;;37.22;16.60;;;;;;;-2.63;100.00;97545.47;5116128;28;20043;-79
2022/12/14 16:19:53;;;;;;;41.28;18.83;;;;;;;-2.59;100.00;97536.19;5116796;28;20075;-79
2022/12/14 16:22:31;;;;;;;32.08;18.05;;;;;;;-2.50;100.00;97559.28;5116013;28;20126;-79
2022/12/14 16:25:18;;;;;;;41.47;18.42;;;;;;;-2.65;100.00;97537.59;5106973;28;20060;-79
2022/12/14 16:27:47;;;;;;;41.33;19.95;;;;;;;-2.52;100.00;97569.25;5111994;28;20044;-79
2022/12/14 16:30:28;;;;;;;37.97;17.05;;;;;;;-2.61;100.00;97552.31;5109465;28;20055;-79
2022/12/14 16:33:07;;;;;;;36.53;17.60;;;;;;;-2.60;100.00;97547.84;5094831;28;20521;-79
2022/12/14 16:35:37;;;;;;;36.85;17.80;;;;;;;-2.73;100.00;97524.19;5095805;28;20076;-79
2022/12/14 16:38:07;;;;;;;35.13;17.13;;;;;;;-2.63;100.00;97556.94;5107589;28;20051;-78
2022/12/14 16:40:35;;;;;;;32.50;16.48;;;;;;;-2.60;100.00;97561.97;5115658;28;20078;-78
2022/12/14 16:43:03;;;;;;;38.88;18.63;;;;;;;-2.60;100.00;97545.19;5109260;28;20047;-77
2022/12/14 16:46:06;;;;;;;43.70;20.83;;;;;;;-2.45;100.00;97567.69;5115758;28;20073;-78
2022/12/14 16:48:35;;;;;;;38.53;18.83;;;;;;;-2.49;100.00;97566.31;5114999;28;20051;-78
2022/12/14 16:51:25;;;;;;;35.75;16.40;;;;;;;-2.59;100.00;97568.97;5098588;28;20049;-78
2022/12/14 16:53:54;;;;;;;41.78;19.58;;;;;;;-2.60;100.00;97561.97;5089326;28;20055;-77
2022/12/14 16:56:23;;;;;;;40.45;19.45;;;;;;;-2.49;100.00;97583.09;5114703;28;20047;-78
2022/12/14 16:58:55;;;;;;;35.60;18.08;;;;;;;-2.55;100.00;97580.16;5115476;28;20043;-78
2022/12/14 17:01:23;;;;;;;39.78;19.67;;;;;;;-2.45;100.00;97589.00;5113511;28;20051;-78
2022/12/14 17:03:56;;;;;;;37.05;17.95;;;;;;;-2.42;100.00;97593.19;5114364;28;20555;-78
2022/12/14 17:06:31;;;;;;;40.13;18.08;;;;;;;-2.54;100.00;97585.34;5115276;28;20055;-78
2022/12/14 17:08:58;;;;;;;35.90;18.02;;;;;;;-2.42;100.00;97599.34;5105059;28;20094;-78
2022/12/14 17:11:24;;;;;;;41.72;19.95;;;;;;;-2.61;100.00;97568.25;5114357;28;20391;-77
2022/12/14 17:13:51;;;;;;;33.00;18.27;;;;;;;-2.58;100.00;97594.59;5114284;28;20188;-78
2022/12/14 17:16:20;;;;;;;41.90;18.98;;;;;;;-2.63;100.00;97585.38;5115009;28;20140;-76
2022/12/14 17:18:48;;;;;;;35.47;18.10;;;;;;;-2.60;100.00;97598.41;5114263;28;20051;-76
2022/12/14 17:21:18;;;;;;;28.92;16.67;;;;;;;-2.62;100.00;97603.84;5114444;28;20471;-76
2022/12/14 17:23:46;;;;;;;;;;;;;;;-2.51;100.00;97634.81;5114015;28;20048;-77
2022/12/14 17:26:19;;;;;;;29.80;16.42;;;;;;;-2.56;100.00;97635.22;5112779;28;19927;-77
2022/12/14 17:28:46;;;;;;;41.55;18.17;;;;;;;-2.72;100.00;97614.47;5111902;28;20134;-76
2022/12/14 17:31:14;;;;;;;34.58;16.02;;;;;;;-2.59;100.00;97651.47;5114804;28;20051;-76
2022/12/14 17:33:41;;;;;;;36.65;16.83;;;;;;;-2.79;100.00;97631.13;5113596;28;20143;-76
2022/12/14 17:36:08;;;;;;;34.22;17.85;;;;;;;-2.70;100.00;97636.44;5114973;28;20055;-76
2022/12/14 17:38:34;;;;;;;33.65;16.58;;;;;;;-2.70;100.00;97617.00;5114395;28;20044;-76
2022/12/14 17:41:02;;;;;;;32.35;15.77;;;;;;;-2.76;100.00;97610.41;5114138;28;20079;-77
2022/12/14 17:43:29;;;;;;;37.15;17.10;;;;;;;-2.58;100.00;97636.34;5113080;28;20062;-77
2022/12/14 17:45:59;;;;;;;34.83;17.40;;;;;;;-2.67;100.00;97627.34;5112834;28;20464;-77
2022/12/14 17:48:26;;;;;;;38.20;18.80;;;;;;;-2.72;100.00;97614.47;5114086;28;20127;-77
2022/12/14 17:50:53;;;;;;;37.53;18.40;;;;;;;-2.66;100.00;97626.38;5114624;28;20471;-77
2022/12/14 17:53:34;;;;;;;38.55;18.33;;;;;;;-2.61;100.00;97634.78;5113496;28;20052;-78
2022/12/14 17:56:03;;;;;;;30.52;16.60;;;;;;;-2.71;100.00;97642.78;5115123;28;20048;-77
2022/12/14 17:58:29;;;;;;;36.15;18.10;;;;;;;-2.72;100.00;97632.28;5114859;28;20566;-76
2022/12/14 18:01:02;;;;;;;41.67;18.48;;;;;;;-2.71;100.00;97623.28;5113320;28;20062;-76
2022/12/14 18:03:30;;;;;;;33.90;17.70;;;;;;;-2.67;100.00;97645.97;5111660;28;20512;-76
2022/12/14 18:05:59;;;;;;;37.28;17.75;;;;;;;-2.74;100.00;97631.53;5110212;28;20044;-76
2022/12/14 18:08:26;;;;;;;42.50;18.05;;;;;;;-2.75;100.00;97629.88;5094038;28;20491;-76
2022/12/14 18:10:56;;;;;;;51.55;22.85;;;;;;;-2.65;100.00;97651.16;5093896;28;20060;-79
2022/12/14 18:13:24;;;;;;;;;;;;;;;-2.63;100.00;97666.03;5093222;28;20503;-78
2022/12/14 18:15:52;;;;;;;41.88;19.13;;;;;;;-2.66;100.00;97642.34;5093967;28;19923;-79
2022/12/14 18:18:21;;;;;;;48.78;21.00;;;;;;;-2.60;100.00;97678.22;5097816;28;20047;-78
2022/12/14 18:20:51;;;;;;;47.03;20.42;;;;;;;-2.63;100.00;97674.00;5106256;28;20059;-78
2022/12/14 18:23:18;;;;;;;44.17;19.77;;;;;;;-2.75;100.00;97667.97;5106527;28;20052;-78
2022/12/14 18:25:47;;;;;;;36.67;17.00;;;;;;;-2.59;100.00;97671.91;5092885;28;20547;-76
2022/12/14 18:28:14;;;;;;;42.47;18.25;;;;;;;-2.64;100.00;97656.34;5107767;28;20039;-76
2022/12/14 18:30:46;;;;;;;44.95;18.45;;;;;;;-2.55;100.00;97686.59;5113207;28;20577;-76
2022/12/14 18:33:14;;;;;;;42.40;19.77;;;;;;;-2.72;100.00;97653.56;5112604;28;20155;-76
